Station: Moranbah Airport

  Atmospheric Gas Attenuation - ITU Rec 676-11   --------------- db/100km ---------------
Date Time Temp RH % AH g/m3 Dew Point Wind Direction Speed kph Gust kph Barometer mB Rainfall Since 9am 24GHz 47GHz 76GHz 122GHz 134GHz 241GHz
27 01:20 24.4 81 18.03 20.9 13 15 1007 0 39.0 38.2 72.8 192.7 210.7 731.8
27 01:10 24.4 80 17.8 20.7 15 17 1007.1 0 38.5 37.8 71.8 189.9 207.3 719.8
27 01:00 24.6 80 18.01 20.9 15 17 1007.3 0 38.9 38.1 72.6 192.0 209.9 729.0
27 00:50 24.6 79 17.78 20.7 17 17 1007.3 0 38.4 37.7 71.5 189.2 206.5 717.0
27 00:40 24.7 79 17.88 20.8 11 13 1007.5 0 38.6 37.8 71.9 190.2 207.7 721.4
27 00:30 24.9 78 17.85 20.8 15 20 1007.6 0 38.6 37.7 71.6 189.3 206.7 717.9
27 00:20 24.9 78 17.85 20.8 13 15 1007.7 0 38.6 37.7 71.6 189.3 206.7 718.0
27 00:10 25 78 17.96 20.9 13 17 1007.9 0 38.8 37.9 72.0 190.5 208.1 722.9
27 00:00 25.1 77 17.82 20.8 17 22 1008 0 38.5 37.6 71.3 188.5 205.8 714.7
26 23:50 25.2 76 17.69 20.7 19 20 1008.2 0 38.2 37.3 70.6 186.7 203.6 707.1
26 23:40 25.4 75 17.66 20.6 19 20 1008.3 0 38.1 37.2 70.3 185.9 202.6 703.8
26 23:30 25.4 75 17.66 20.6 17 24 1008.5 0 38.1 37.2 70.3 185.9 202.7 703.9
26 23:20 25.5 75 17.76 20.7 22 26 1008.5 0 38.3 37.3 70.7 186.9 203.9 708.1
26 23:10 25.6 74 17.62 20.6 20 22 1008.6 0 38.0 37.0 69.9 185.0 201.6 700.0
26 23:00 25.7 73 17.48 20.5 19 24 1008.7 0 37.7 36.7 69.2 183.1 199.2 692.0
26 22:50 25.8 73 17.57 20.6 20 24 1008.7 0 37.9 36.8 69.5 183.9 200.3 695.7
26 22:40 25.8 72 17.33 20.4 24 28 1008.6 0 37.4 36.4 68.5 181.0 196.8 683.4
26 22:30 25.9 72 17.43 20.5 20 26 1008.7 0 37.6 36.5 68.8 182.0 198.0 687.6
26 22:20 25.9 71 17.19 20.2 13 17 1008.7 0 37.1 36.1 67.8 179.2 194.5 675.5
26 22:10 26 70 17.04 20.1 20 24 1008.7 0 36.7 35.8 67.0 177.2 192.1 667.0
26 22:00 26 69 16.8 19.9 13 19 1008.8 0 36.2 35.4 65.9 174.4 188.6 655.1
26 21:50 26 68 16.56 19.6 9 11 1008.8 0 35.7 35.0 64.9 171.6 185.2 643.1
26 21:40 26.1 65 15.91 19.2 13 15 1008.7 0 34.3 33.8 62.0 163.9 175.8 610.3
26 21:30 26.2 65 16 19.1 17 20 1008.7 0 34.5 33.9 62.3 164.7 176.8 613.9
26 21:20 26.2 63 15.51 18.8 15 17 1008.7 0 33.5 33.1 60.2 159.1 170.0 590.2
26 21:10 26.3 61 15.1 18.2 13 15 1008.7 0 32.6 32.3 58.4 154.4 164.2 569.8
26 21:00 26.5 60 15.02 18.1 17 24 1008.6 0 32.4 32.1 57.9 153.1 162.6 564.5
26 20:50 26.5 58 14.52 17.6 13 15 1008.4 0 31.4 31.3 55.9 147.6 155.9 541.0
26 20:40 26.6 57 14.35 17.4 11 13 1008.3 0 31.0 31.0 55.1 145.5 153.4 532.3
26 20:30 26.7 58 14.68 17.8 13 19 1008.2 0 31.7 31.5 56.4 148.9 157.6 547.0
26 20:20 26.7 60 15.19 18.3 11 13 1008.1 0 32.8 32.3 58.5 154.5 164.4 570.9
26 20:10 26.7 61 15.44 18.6 11 13 1008 0 33.3 32.7 59.5 157.3 167.8 582.7
26 20:00 26.8 60 15.27 18.4 15 20 1007.9 0 32.9 32.4 58.7 155.2 165.3 573.9
26 19:50 27 59 15.19 18.3 17 19 1007.7 0 32.7 32.2 58.2 153.9 163.8 568.5
26 19:40 27.1 59 15.27 18.4 17 20 1007.5 0 32.9 32.3 58.5 154.5 164.6 571.5
26 19:30 27.2 59 15.35 18.5 19 24 1007.3 0 33.1 32.4 58.7 155.2 165.4 574.5
26 19:20 27.4 58 15.26 18.4 19 20 1007.2 0 32.9 32.1 58.2 153.8 163.8 568.7
26 19:10 27.5 58 15.35 18.5 13 15 1007.1 0 33.0 32.2 58.5 154.5 164.8 572.2
26 19:00 27.7 57 15.25 18.4 19 26 1006.9 0 32.8 32.0 57.9 153.0 163.0 565.9
26 18:50 27.8 56 15.06 18.2 20 26 1006.8 0 32.4 31.6 57.1 150.8 160.2 556.3
26 18:40 27.9 55 14.88 18 20 24 1006.7 0 32.0 31.3 56.3 148.6 157.6 547.3
26 18:30 28.1 54 14.77 17.9 20 24 1006.6 0 31.8 31.1 55.7 147.1 155.8 540.8
26 18:20 28.3 54 14.93 18.1 22 28 1006.6 0 32.1 31.2 56.2 148.4 157.5 546.7
26 18:10 28.4 55 15.29 18.5 28 32 1006.6 0 32.9 31.8 57.5 152.1 162.0 562.6
26 18:00 28.7 55 15.54 18.8 22 32 1006.5 0 33.4 32.1 58.3 154.2 164.7 572.0
26 17:50 29.1 52 15.02 18.5 24 28 1006.4 0 32.2 31.1 55.9 147.8 157.0 545.2
26 17:40 29.5 50 14.76 18 24 30 1006.2 0 31.7 30.5 54.6 144.3 152.8 530.6
26 17:30 29.7 48 14.32 17.8 24 32 1006 0 30.7 29.8 52.8 139.4 146.8 509.6
26 17:20 30.5 44 13.71 17.2 20 26 1006 0 29.4 28.6 49.9 131.8 137.7 478.0
26 17:10 30.4 43 13.33 16.4 26 28 1005.9 0 28.6 28.0 48.6 128.1 133.2 462.2
26 17:00 30.7 42 13.23 16.3 26 37 1005.7 0 28.4 27.8 48.0 126.7 131.4 456.2
26 16:50 30.9 42 13.37 16.5 24 30 1005.7 0 28.7 27.9 48.4 127.7 132.8 461.0
26 16:40 31.1 44 14.16 17.4 20 24 1005.5 0 30.3 29.0 51.2 135.3 142.1 493.6
26 16:30 30.8 48 15.2 18.8 17 22 1005.3 0 32.5 30.7 55.4 146.4 155.8 541.2
26 16:20 30.8 47 14.88 18.5 13 17 1005.4 0 31.8 30.2 54.2 143.1 151.7 527.0
26 16:10 30.4 50 15.5 19.1 15 17 1005.5 0 33.1 31.4 56.9 150.3 160.5 557.5
26 16:00 30.3 50 15.41 19 13 19 1005.4 0 33.0 31.3 56.6 149.6 159.5 554.1
26 15:50 29.5 55 16.24 19.5 13 13 1005.5 0 34.8 32.9 60.5 160.1 172.2 598.2
26 15:40 29 59 16.95 20.2 11 13 1005.5 0 36.3 34.3 63.9 169.0 183.0 635.8
26 15:30 29.5 54 15.94 19.2 22 32 1005.3 0 34.1 32.4 59.3 156.8 168.1 584.1
26 15:20 30 51 15.47 18.8 22 28 1005.4 0 33.1 31.5 57.0 150.8 160.9 559.0
26 15:10 30.1 52 15.86 19.2 24 28 1005.4 0 33.9 32.1 58.5 154.7 165.8 576.1
26 15:00 30.6 51 15.98 19.3 26 32 1005.3 0 34.1 32.1 58.6 155.0 166.3 577.8
26 14:50 30.7 51 16.06 19.4 26 32 1005.3 0 34.3 32.2 58.9 155.7 167.1 580.8
26 14:40 30.9 50 15.92 19.3 28 32 1005.4 0 34.0 31.9 58.2 153.8 164.9 572.9
26 14:30 31.5 49 16.11 19.5 19 28 1005.4 0 34.3 31.9 58.5 154.7 166.1 577.2
26 14:20 31.2 48 15.53 18.9 17 20 1005.5 0 33.1 31.1 56.4 149.1 159.2 553.2
26 14:10 31 48 15.37 19 17 20 1005.6 0 32.8 31.0 55.9 147.9 157.6 547.5
26 14:00 30.4 50 15.5 19.1 19 28 1005.5 0 33.1 31.4 56.9 150.3 160.5 557.5
26 13:50 30.9 48 15.28 18.9 24 28 1005.6 0 32.6 30.8 55.7 147.1 156.6 544.2
26 13:40 32 43 14.52 18.2 17 20 1005.7 0 31.0 29.3 52.0 137.4 145.0 503.6
26 13:30 31.7 40 13.29 16.8 17 22 1005.6 0 28.5 27.5 47.6 125.7 130.5 453.0
26 13:20 32.3 41 14.07 17.4 15 20 1005.9 0 30.0 28.5 50.1 132.4 138.9 482.5
26 13:10 32.1 40 13.58 16.8 17 17 1006 0 29.0 27.9 48.5 127.9 133.4 463.0
26 13:00 32.1 40 13.58 16.8 19 28 1006 0 29.0 27.9 48.5 127.9 133.4 463.0
26 12:50 32 38 12.83 15.9 19 26 1006.3 0 27.5 26.8 45.8 120.9 124.6 432.5
26 12:40 33 37 13.18 16.4 20 24 1006.3 0 28.1 27.0 46.5 122.7 127.2 441.5
26 12:30 32.4 41 14.14 17.5 19 30 1006.4 0 30.2 28.6 50.4 133.0 139.7 485.1
26 12:20 31.8 42 14.03 17.3 24 28 1006.5 0 30.0 28.6 50.3 132.9 139.4 484.1
26 12:10 32.6 41 14.29 18 24 28 1006.6 0 30.5 28.8 50.8 134.2 141.1 490.3
26 12:00 32.1 42 14.26 17.6 19 28 1006.7 0 30.4 28.9 51.0 134.7 141.7 492.1
26 11:50 31.4 41 13.41 16.6 22 24 1006.9 0 28.7 27.9 48.3 127.5 132.6 460.2
26 11:40 31.3 42 13.66 17.2 19 20 1007 0 29.2 28.3 49.3 130.1 135.8 471.4
26 11:30 31 45 14.4 17.7 20 26 1007.2 0 30.8 29.5 52.3 138.1 145.5 505.2
26 11:20 30.6 46 14.41 17.7 22 26 1007.4 0 30.8 29.6 52.6 138.9 146.4 508.3
26 11:10 30.4 50 15.5 19.1 13 22 1007.5 0 33.1 31.4 57.0 150.6 160.7 558.3
26 11:00 29.1 55 15.89 19.4 17 30 1007.7 0 34.0 32.6 59.5 157.3 168.6 585.8
26 10:50 29.4 55 16.15 19.4 15 20 1007.8 0 34.6 32.9 60.4 159.6 171.5 595.8
26 10:40 29.4 57 16.73 20 19 22 1007.9 0 35.8 33.9 62.8 166.0 179.3 623.1
26 10:30 29.1 54 15.6 19.1 19 30 1007.9 0 33.4 32.1 58.4 154.2 164.8 572.4
26 10:20 28.7 56 15.83 19.1 11 15 1008.1 0 34.0 32.6 59.6 157.5 168.8 586.2
26 10:10 29.3 55 16.06 19.3 17 20 1008.3 0 34.4 32.8 60.1 158.9 170.6 592.5
26 10:00 28.8 55 15.63 19.1 26 35 1008.4 0 33.5 32.3 58.7 155.2 165.9 576.2
26 09:50 29.2 58 16.84 20.1 24 28 1008.3 0 36.0 34.1 63.4 167.7 181.4 630.2
26 09:40 28.2 65 17.87 21 17 19 1008.4 0 38.3 36.3 68.7 181.7 198.3 689.0
26 09:30 27.5 66 17.46 20.6 19 26 1008.5 0 37.5 35.9 67.5 178.6 194.2 674.8
26 09:20 27.5 69 18.26 21.3 13 20 1008.5 0 39.2 37.3 71.1 188.0 205.8 715.0
26 09:10 26.6 71 17.87 20.9 15 19 1008.5 0 38.4 37.0 70.1 185.5 202.5 703.6
26 09:00 26.5 73 18.27 21.3 17 24 1008.6 0 39.3 37.8 72.0 190.6 208.7 725.0
26 08:50 26.4 73 18.17 21.2 19 20 1008.5 0 39.1 37.6 71.7 189.6 207.5 720.8

Last Refresh: 27-Feb-2021 02:05:32

Most of the information presented on this site is sourced from the Bureau of Meteorology.  Copyright in all material sourced from the Bureau of Meteorology resides with the Commonwealth of Australia.